Latest Coastal Weather Observations for Hobart

IDT60701

Issued at 8:15 pm EST Thursday 2 October 2014 (issued every 10 minutes, with the page automatically refreshed every 10 minutes)

About coastal observations | Map of coastal stations | Coastal observations for TAS | Marine services | Other Formats
Station Details ID: 094029 Name: HOBART (ELLERSLIE ROAD) Lat: -42.89 Lon: 147.33 Height: 50.5 m
Data from the previous 72 hours. | See also: Recent months at Hobart
Date/Time
EST
Temp

°C
Wind Pressure Rain
since 9am
mm
Weather Cloud Vis
km
Sea
Height
m
Swell
Dir
 
Speed
knots
Gust
knots
hPa Trend Height
m
Period
s
Dir
02/08:00pm 10.2 WSW 11 16 1018.2 - 0.0 - - - - - - -
02/07:30pm 10.1 WSW 5 12 1018.0 - 0.0 - - - - - - -
02/07:00pm 10.6 WSW 11 19 1017.5 - 0.0 - - - - - - -
02/06:30pm 11.0 WSW 13 21 1016.9 - 0.0 - - - - - - -
02/06:17pm 11.2 SW 15 27 1016.7 - 0.0 - - - - - - -
02/06:00pm 11.5 WSW 11 18 1016.6 - 0.0 - - - - - - -
02/05:30pm 11.9 WSW 11 26 1016.1 - 0.0 - - - - - - -
02/05:00pm 12.5 WSW 18 31 1015.5 - 0.0 - - - - - - -
02/04:49pm 12.7 WSW 15 25 1015.6 - 0.0 - - - - - - -
02/04:30pm 12.9 WSW 14 24 1015.4 - 0.0 - - - - - - -
02/04:00pm 13.8 SW 15 25 1015.0 - 0.0 - - - - - - -
02/03:37pm 14.1 SW 16 26 1014.5 - 0.0 - - - - - - -
02/03:30pm 14.3 SW 17 26 1014.4 - 0.0 - - - - - - -
02/03:01pm 15.0 SW 20 31 1013.8 - 0.0 - - - - - - -
02/03:00pm 15.2 SW 19 28 1013.8 - 0.0 - - - - - - -
02/02:31pm 15.7 SW 16 26 1013.4 - 0.0 - - - - - - -
02/02:30pm 15.9 SW 16 25 1013.4 - 0.0 - - - - - - -
02/02:21pm 16.3 SW 15 25 1013.3 - 0.0 - - - - - - -
02/02:00pm 17.3 WSW 11 23 1013.1 - 0.0 - - - - - - -
02/01:30pm 16.7 SW 17 30 1012.9 - 0.0 - - - - - - -
02/01:29pm 16.9 SSW 16 30 1012.8 - 0.0 - - - - - - -
02/01:00pm 16.2 SSW 14 21 1012.7 - 0.0 - - - - - - -
02/12:30pm 17.4 WSW 8 19 1012.8 - 0.0 - - - - - - -
02/12:00pm 16.6 WSW 12 25 1012.8 - 0.0 - - - - - - -
02/11:30am 16.0 WSW 16 31 1012.7 - 0.0 - - - - - - -
02/11:27am 16.7 WSW 15 31 1012.6 - 0.0 - - - - - - -
02/11:00am 15.3 WSW 12 20 1012.8 - 0.0 - - - - - - -
02/10:49am 15.7 SW 15 25 1012.5 - 0.0 - - - - - - -
02/10:30am 16.9 SW 9 16 1012.4 - 0.0 - - - - - - -
02/10:23am 16.6 W 15 27 1012.3 - 0.0 - - - - - - -
02/10:17am 15.8 W 15 24 1012.4 - 0.0 - - - - - - -
02/10:14am 15.8 WSW 20 36 1012.2 - 0.0 - - - - - - -
02/10:11am 15.8 WSW 15 25 1012.4 - 0.0 - - - - - - -
02/10:07am 16.5 W 22 33 1012.0 - 0.0 - - - - - - -
02/10:05am 16.5 WSW 15 26 1012.2 - 0.0 - - - - - - -
02/10:00am 16.2 WSW 14 26 1012.1 - 0.0 - - - - - - -
02/09:31am 16.0 WSW 15 27 1011.9 - 0.0 - - - - - - -
02/09:30am 15.9 WSW 13 27 1012.0 - 0.0 - - - - - - -
02/09:00am 14.6 WNW 9 14 1012.0 - 0.0 - - - - - - -
02/08:30am 14.4 NNW 14 23 1011.6 - 0.0 - - - - - - -
02/08:25am 14.5 NNW 15 23 1011.6 - 0.0 - - - - - - -
02/08:00am 13.6 WNW 7 12 1011.7 - 0.0 - - - - - - -
02/07:30am 12.9 NW 11 21 1011.3 - 0.0 - - - - - - -
02/07:00am 12.7 W 6 11 1011.1 - 0.0 - - - - - - -
02/06:30am 12.4 NW 9 15 1011.0 - 0.0 - - - - - - -
02/06:00am 12.2 W 7 14 1010.7 - 0.0 - - - - - - -
02/05:30am 12.3 NNW 11 20 1010.3 - 0.0 - - - - - - -
02/05:00am 12.2 NNW 15 21 1009.7 - 0.0 - - - - - - -
02/04:30am 13.1 W 12 21 1009.9 - 0.0 - - - - - - -
02/04:00am 12.5 NW 10 16 1009.7 - 0.0 - - - - - - -
02/03:30am 12.1 NW 9 16 1009.7 - 0.0 - - - - - - -
02/03:00am 13.0 NW 11 13 1009.6 - 0.0 - - - - - - -
02/02:30am 12.6 NW 14 19 1009.7 - 0.0 - - - - - - -
02/02:00am 12.5 NNW 15 21 1009.7 - 0.0 - - - - - - -
02/01:30am 12.9 NNW 13 22 1010.1 - 0.0 - - - - - - -
02/01:00am 12.9 NW 18 29 1010.2 - 0.0 - - - - - - -
02/12:30am 13.0 NNW 16 26 1010.7 - 0.0 - - - - - - -
02/12:19am 13.2 NNW 17 27 1010.8 - 0.0 - - - - - - -
02/12:00am 13.0 N 15 21 1010.9 - 0.0 - - - - - - -
 
Date/Time
EST
Temp

°C
Wind Pressure Rain
since 9am
mm
Weather Cloud Vis
km
Sea
Height
m
Swell
Dir
 
Speed
knots
Gust
knots
hPa Trend Height
m
Period
s
Dir
01/11:35pm 13.3 N 15 25 1011.3 - 0.0 - - - - - - -
01/11:30pm 13.3 N 14 21 1011.2 - 0.0 - - - - - - -
01/11:00pm 12.9 N 16 25 1011.4 - 0.0 - - - - - - -
01/10:56pm 12.9 N 15 25 1011.5 - 0.0 - - - - - - -
01/10:30pm 13.0 N 18 25 1011.8 - 0.0 - - - - - - -
01/10:00pm 12.2 N 19 28 1011.6 - 0.0 - - - - - - -
01/09:55pm 12.2 N 18 28 1011.7 - 0.0 - - - - - - -
01/09:30pm 11.7 N 22 30 1011.7 - 0.0 - - - - - - -
01/09:02pm 11.5 N 20 30 1012.1 - 0.0 - - - - - - -
01/09:00pm 11.5 N 20 27 1012.1 - 0.0 - - - - - - -
01/08:30pm 11.2 N 17 26 1012.7 - 0.0 - - - - - - -
01/08:03pm 11.0 N 18 28 1012.8 - 0.0 - - - - - - -
01/08:00pm 11.0 N 17 26 1013.0 - 0.0 - - - - - - -
01/07:41pm 11.0 NNW 17 27 1013.4 - 0.0 - - - - - - -
01/07:30pm 11.0 NNW 16 23 1013.6 - 0.0 - - - - - - -
01/07:00pm 11.1 NNW 14 21 1013.8 - 0.0 - - - - - - -
01/06:30pm 11.4 N 13 17 1014.2 - 0.0 - - - - - - -
01/06:00pm 11.6 NNW 13 20 1014.5 - 0.0 - - - - - - -
01/05:30pm 12.1 NNW 13 18 1014.7 - 0.0 - - - - - - -
01/05:00pm 13.3 NW 12 20 1014.4 - 0.0 - - - - - - -
01/04:30pm 13.7 NW 11 19 1014.1 - 0.0 - - - - - - -
01/04:00pm 14.4 WNW 14 21 1014.0 - 0.0 - - - - - - -
01/03:30pm 14.4 WNW 10 15 1013.9 - 0.0 - - - - - - -
01/03:00pm 13.0 WNW 13 21 1013.8 - 0.0 - - - - - - -
01/02:30pm 13.3 WSW 7 14 1014.0 - 0.0 - - - - - - -
01/02:00pm 13.0 SW 17 24 1013.6 - 0.0 - - - - - - -
01/01:30pm 14.2 SSW 9 17 1013.6 - 0.0 - - - - - - -
01/01:18pm 15.4 WNW 15 22 1013.3 - 0.0 - - - - - - -
01/01:00pm 14.3 SSW 8 11 1013.3 - 0.0 - - - - - - -
01/12:30pm 14.3 SW 10 16 1013.9 - 0.0 - - - - - - -
01/12:00pm 13.4 SW 15 25 1013.8 - 0.0 - - - - - - -
01/11:49am 14.0 WSW 15 28 1013.9 - 0.0 - - - - - - -
01/11:30am 13.5 W 13 21 1014.0 - 0.0 - - - - - - -
01/11:00am 13.9 SW 12 20 1013.9 - 0.0 - - - - - - -
01/10:30am 13.7 NW 9 15 1013.6 - 0.0 - - - - - - -
01/10:00am 12.4 S 7 14 1013.9 - 0.0 - - - - - - -
01/09:30am 10.0 W 5 8 1014.1 - 0.0 - - - - - - -
01/09:00am 10.4 N 7 12 1013.7 - 5.4 - - - - - - -
01/08:30am 9.7 NW 11 15 1013.5 - 5.4 - - - - - - -
01/08:00am 10.2 NNW 9 11 1013.0 - 5.4 - - - - - - -
01/07:30am 8.9 NNW 10 13 1012.6 - 5.4 - - - - - - -
01/07:00am 8.1 NNW 9 15 1012.0 - 5.4 - - - - - - -
01/06:30am 7.9 W 6 17 1011.3 - 5.4 - - - - - - -
01/06:00am 6.4 SW 7 12 1010.8 - 5.4 Recent precip. - - - - - -
01/05:30am 6.8 SW 13 21 1010.2 - 5.2 - - - - - - -
01/05:24am 7.0 SW 15 27 1010.1 - 5.2 - - - - - - -
01/05:00am 6.8 SW 10 16 1009.0 - 5.0 - - - - - - -
01/04:30am 6.7 SW 10 17 1008.7 - 5.0 - - - - - - -
01/04:00am 7.1 SW 7 14 1007.9 - 5.0 - - - - - - -
01/03:30am 6.1 E 6 11 1007.0 - 5.0 - - - - - - -
01/03:00am 5.6 ESE 3 7 1006.7 - 5.0 - - - - - - -
01/02:30am 5.5 NNW 5 9 1006.7 - 5.0 - - - - - - -
01/02:00am 4.9 W 11 20 1006.0 - 5.0 - - - - - - -
01/01:56am 5.0 WSW 15 20 1006.5 - 4.6 - - - - - - -
01/01:50am 5.0 SW 20 30 1006.8 - 3.6 - - - - - - -
01/01:30am 7.0 WSW 13 23 1006.1 - 1.8 - - - - - - -
01/01:00am 7.4 NNE 6 12 1004.9 - 1.8 - - - - - - -
01/12:30am 7.7 ENE 3 7 1004.8 - 1.8 - - - - - - -
01/12:00am 8.4 WSW 11 25 1004.1 - 1.8 - - - - - - -
 
Date/Time
EST
Temp

°C
Wind Pressure Rain
since 9am
mm
Weather Cloud Vis
km
Sea
Height
m
Swell
Dir
 
Speed
knots
Gust
knots
hPa Trend Height
m
Period
s
Dir
30/11:37pm 8.8 W 15 27 1003.3 - 1.8 - - - - - - -
30/11:30pm 8.5 W 10 18 1003.4 - 1.8 - - - - - - -
30/11:07pm 8.5 WSW 15 31 1002.7 - 1.8 - - - - - - -
30/11:00pm 8.6 WSW 9 22 1002.6 - 1.8 - - - - - - -
30/10:30pm 8.0 SW 7 10 1002.5 - 1.8 - - - - - - -
30/10:00pm 8.1 S 8 13 1002.0 - 1.8 - - - - - - -
30/09:30pm 8.9 ENE 6 11 1001.3 - 1.8 - - - - - - -
30/09:00pm 9.0 WNW 5 9 1001.1 - 1.8 - - - - - - -
30/08:30pm 9.2 S 8 17 1000.5 - 1.8 - - - - - - -
30/08:00pm 9.6 SW 5 14 999.6 - 1.8 - - - - - - -
30/07:30pm 9.2 SE 6 15 998.9 - 1.8 - - - - - - -
30/07:00pm 9.1 WNW 5 11 998.2 - 1.8 - - - - - - -
30/06:30pm 9.3 SSW 7 13 997.6 - 1.8 - - - - - - -
30/06:00pm 10.2 SW 7 13 997.0 - 1.8 Recent precip. - - - - - -
30/05:30pm 11.8 SSW 7 11 995.7 - 1.6 - - - - - - -
30/05:00pm 12.3 E 3 11 994.7 - 1.6 - - - - - - -
30/04:30pm 12.4 W 6 9 994.0 - 1.6 - - - - - - -
30/04:00pm 12.2 N 13 19 993.4 - 1.6 - - - - - - -
30/03:30pm 13.0 N 12 17 993.2 - 1.6 - - - - - - -
30/03:00pm 11.5 N 12 17 993.8 - 1.6 Recent precip. - - - - - -
30/02:30pm 12.1 N 10 15 994.0 - 1.2 - - - - - - -
30/02:00pm 12.3 S 6 9 993.5 - 1.2 - - - - - - -
30/01:30pm 17.0 NW 12 18 992.8 - 0.0 - - - - - - -
30/01:00pm 17.1 NW 14 21 992.4 - 0.0 - - - - - - -
30/12:30pm 16.7 NW 15 24 992.8 - 0.0 - - - - - - -
30/12:00pm 17.0 NW 17 24 993.2 - 0.0 - - - - - - -
30/11:30am 16.1 WNW 17 28 993.9 - 0.0 - - - - - - -
30/11:00am 18.9 NW 20 36 993.6 - 0.0 - - - - - - -
30/10:30am 19.1 NW 17 28 993.8 - 0.0 - - - - - - -
30/10:00am 18.9 NW 23 35 994.1 - 0.0 - - - - - - -
30/09:30am 19.0 NW 17 36 994.5 - 0.0 - - - - - - -
30/09:00am 17.5 NW 18 33 994.9 - 0.0 - - - - - - -
30/08:30am 16.7 NW 22 36 995.4 - 0.0 - - - - - - -
30/08:00am 15.7 NW 23 39 995.8 - 0.0 - - - - - - -
30/07:37am 14.8 NNW 16 39 996.1 - 0.0 - - - - - - -
30/07:30am 14.3 NNW 17 29 996.1 - 0.0 - - - - - - -
30/07:00am 14.3 NNW 20 33 996.1 - 0.0 - - - - - - -
30/06:31am 13.6 NNW 19 30 996.6 - 0.0 - - - - - - -
30/06:30am 13.6 NNW 19 28 996.6 - 0.0 - - - - - - -
30/06:08am 13.2 NNW 15 26 996.9 - 0.0 - - - - - - -
30/06:00am 13.1 NNW 14 23 997.1 - 0.0 - - - - - - -
30/05:31am 13.9 NNW 15 25 997.5 - 0.0 - - - - - - -
30/05:30am 14.0 NNW 14 25 997.6 - 0.0 - - - - - - -
30/05:00am 14.2 NNW 16 27 997.7 - 0.0 - - - - - - -
30/04:30am 14.2 NW 20 35 998.1 - 0.0 - - - - - - -
30/04:00am 14.2 NW 18 28 998.4 - 0.0 - - - - - - -
30/03:30am 14.5 NW 19 36 998.7 - 0.0 - - - - - - -
30/03:00am 14.5 NW 20 31 998.9 - 0.0 - - - - - - -
30/02:33am 14.7 NW 26 43 999.1 - 0.0 - - - - - - -
30/02:30am 14.5 NW 23 33 999.2 - 0.0 - - - - - - -
30/02:00am 14.6 NW 25 39 999.5 - 0.0 - - - - - - -
30/01:30am 14.8 NW 29 42 999.9 - 0.0 - - - - - - -
30/01:00am 14.7 NW 22 35 1000.3 - 0.0 - - - - - - -
30/12:30am 14.8 NW 24 39 1000.8 - 0.0 - - - - - - -
30/12:00am 14.7 NW 20 31 1001.2 - 0.0 - - - - - - -
 
Date/Time
EST
Temp

°C
Wind Pressure Rain
since 9am
mm
Weather Cloud Vis
km
Sea
Height
m
Swell
Dir
 
Speed
knots
Gust
knots
hPa Trend Height
m
Period
s
Dir
29/11:30pm 14.4 NW 17 29 1001.4 - 0.0 - - - - - - -
29/11:00pm 14.4 NW 20 34 1001.7 - 0.0 - - - - - - -
29/10:36pm 14.3 NNW 19 29 1001.9 - 0.0 - - - - - - -
29/10:30pm 14.3 NW 18 26 1002.0 - 0.0 - - - - - - -
29/10:00pm 14.0 NW 17 30 1002.4 - 0.0 - - - - - - -
29/09:30pm 13.9 NNW 18 28 1002.5 - 0.0 - - - - - - -
29/09:00pm 13.7 NNW 17 31 1002.8 - 0.0 - - - - - - -
29/08:30pm 13.7 NNW 16 27 1002.5 - 0.0 - - - - - - -

Other Formats:

Comma delimited format used in spreadsheet applications
http://www.bom.gov.au/fwo/IDT60701/IDT60701.94970.axf

JavaScript Object Notation format (JSON) in row-major order
http://www.bom.gov.au/fwo/IDT60701/IDT60701.94970.json